Time;durP1;ratioP1;P1;durP2;ratioP2;P2;SDS_P1;SDS_P2;PMS_P1;PMS_P2;Temp;Humidity;BMP_temperature;BMP_pressure;BME280_temperature;BME280_humidity;BME280_pressure;Samples;Min_cycle;Max_cycle;Signal;HPM_P1;HPM_P2
2022/07/22 00:00:11;;;;;;;5.07;3.67;;;;;;;24.65;61.11;98958.91;5011591;28;20038;-67
2022/07/22 00:03:03;;;;;;;6.43;3.10;;;;;;;24.63;61.37;98949.44;5012141;28;20060;-67
2022/07/22 00:05:48;;;;;;;8.13;3.97;;;;;;;24.53;61.50;98945.22;5014081;28;20041;-67
2022/07/22 00:08:32;;;;;;;6.38;3.50;;;;;;;24.56;61.71;98933.31;5012951;28;20107;-67
2022/07/22 00:11:17;;;;;;;6.68;3.50;;;;;;;24.60;61.02;98929.22;5012590;28;20038;-67
2022/07/22 00:14:02;;;;;;;5.53;3.30;;;;;;;24.60;60.74;98935.41;5012661;28;20129;-67
2022/07/22 00:16:48;;;;;;;4.35;3.28;;;;;;;24.58;60.46;98924.03;5013986;28;20108;-66
2022/07/22 00:19:32;;;;;;;4.45;3.72;;;;;;;24.58;60.61;98932.06;5013732;28;20050;-66
2022/07/22 00:22:17;;;;;;;6.10;3.92;;;;;;;24.55;60.23;98927.09;5012582;28;20125;-67
2022/07/22 00:25:02;;;;;;;5.78;3.88;;;;;;;24.54;59.90;98924.63;5012823;28;20034;-67
2022/07/22 00:27:47;;;;;;;5.45;3.97;;;;;;;24.63;59.91;98936.03;5025300;28;20064;-66
2022/07/22 00:30:32;;;;;;;4.13;3.33;;;;;;;24.50;60.26;98936.75;5013181;28;20046;-67
2022/07/22 00:33:17;;;;;;;9.77;3.80;;;;;;;24.46;60.41;98931.78;5013377;28;20514;-67
2022/07/22 00:36:02;;;;;;;10.63;3.63;;;;;;;24.39;60.77;98940.75;5011323;28;20069;-66
2022/07/22 00:38:47;;;;;;;9.23;4.32;;;;;;;24.41;60.28;98946.75;5012152;28;20266;-67
2022/07/22 00:41:32;;;;;;;4.82;3.47;;;;;;;24.43;59.90;98958.91;5011357;28;20125;-67
2022/07/22 00:44:17;;;;;;;9.75;3.78;;;;;;;24.37;61.12;98957.00;5012248;28;20054;-67
2022/07/22 00:47:02;;;;;;;5.30;3.50;;;;;;;24.31;61.30;98960.44;5011908;28;20349;-67
2022/07/22 00:49:46;;;;;;;4.90;3.33;;;;;;;24.29;59.91;98947.25;5012121;28;20498;-67
2022/07/22 00:52:32;;;;;;;5.15;3.72;;;;;;;24.12;59.75;98966.19;5013793;28;20121;-66
2022/07/22 00:55:17;;;;;;;5.30;3.45;;;;;;;24.12;61.59;98966.19;5012084;28;20055;-67
2022/07/22 00:58:04;;;;;;;5.28;3.13;;;;;;;24.22;61.30;98965.13;5023536;28;20038;-66
2022/07/22 01:00:48;;;;;;;7.97;3.95;;;;;;;24.02;60.44;98971.03;5010756;28;20121;-68
2022/07/22 01:03:33;;;;;;;4.63;3.47;;;;;;;23.93;59.70;98977.50;5023331;28;20046;-66
2022/07/22 01:06:18;;;;;;;4.75;3.55;;;;;;;23.80;59.37;98975.50;5014911;28;20044;-67
2022/07/22 01:09:04;;;;;;;5.97;3.08;;;;;;;23.76;58.96;98964.38;5017416;28;20054;-67
2022/07/22 01:11:49;;;;;;;5.18;3.10;;;;;;;23.67;58.93;98977.00;5010791;28;20103;-67
2022/07/22 01:14:34;;;;;;;4.97;3.50;;;;;;;23.52;60.70;98973.50;5012548;28;20109;-68
2022/07/22 01:17:20;;;;;;;6.78;3.95;;;;;;;23.42;63.84;98981.81;5000375;28;20121;-67
2022/07/22 01:20:06;;;;;;;5.63;3.67;;;;;;;23.31;65.16;98983.88;5027108;28;20497;-66
2022/07/22 01:22:51;;;;;;;5.07;3.60;;;;;;;23.32;64.88;98988.19;5018335;28;20467;-67
2022/07/22 01:25:36;;;;;;;5.20;3.47;;;;;;;23.31;64.00;98978.53;5024177;28;20038;-68
2022/07/22 01:28:22;;;;;;;11.25;3.75;;;;;;;23.34;62.54;98972.00;4998319;28;20470;-67
2022/07/22 01:31:07;;;;;;;5.60;3.58;;;;;;;23.32;63.90;98971.34;5013732;28;20041;-66
2022/07/22 01:33:52;;;;;;;7.40;3.80;;;;;;;23.27;64.40;98971.91;4987074;28;20098;-67
2022/07/22 01:36:37;;;;;;;5.78;3.63;;;;;;;23.26;65.74;98959.53;5004517;28;20390;-67
2022/07/22 01:39:21;;;;;;;5.22;3.28;;;;;;;23.12;66.97;98971.88;4999378;28;20375;-67
2022/07/22 01:42:06;;;;;;;6.90;3.95;;;;;;;22.92;67.90;98969.72;5024825;28;20124;-68
2022/07/22 01:44:52;;;;;;;6.40;3.70;;;;;;;22.75;68.34;98969.88;5020426;28;20037;-67
2022/07/22 01:47:40;;;;;;;4.57;3.33;;;;;;;22.66;68.65;98978.13;5012224;28;20104;-68
2022/07/22 01:50:25;;;;;;;4.93;3.28;;;;;;;22.51;69.52;98976.19;5011959;28;20385;-67
2022/07/22 01:53:09;;;;;;;5.53;3.85;;;;;;;22.44;69.32;98969.94;5022184;28;20048;-66
2022/07/22 01:55:55;;;;;;;5.40;3.55;;;;;;;22.36;70.06;98968.97;5023859;28;20449;-68
2022/07/22 01:58:39;;;;;;;7.78;4.47;;;;;;;22.40;70.05;98970.28;5022153;28;20120;-67
2022/07/22 02:01:26;;;;;;;7.57;3.92;;;;;;;22.35;70.20;98975.31;5009909;28;20371;-67
2022/07/22 02:04:12;;;;;;;4.68;3.55;;;;;;;22.35;70.55;98974.47;5024177;28;20113;-67
2022/07/22 02:06:57;;;;;;;7.18;4.15;;;;;;;22.28;70.57;98975.19;5024065;28;20034;-67
2022/07/22 02:09:42;;;;;;;4.70;3.33;;;;;;;22.23;70.76;98972.22;5024148;28;20030;-67
2022/07/22 02:12:27;;;;;;;5.03;3.53;;;;;;;22.25;68.95;98978.22;5009755;28;20447;-67
2022/07/22 02:15:11;;;;;;;5.80;3.60;;;;;;;22.14;68.85;98975.94;5005591;28;20391;-67
2022/07/22 02:17:58;;;;;;;5.07;3.58;;;;;;;22.19;68.41;98986.09;5010492;28;20042;-67
2022/07/22 02:20:43;;;;;;;8.18;3.90;;;;;;;22.19;67.77;98983.44;5010589;28;20037;-67
2022/07/22 02:23:28;;;;;;;5.90;3.47;;;;;;;22.27;66.74;98978.88;5011445;28;20112;-67
2022/07/22 02:26:13;;;;;;;5.35;3.10;;;;;;;22.33;66.14;98982.66;5009496;28;20065;-68
2022/07/22 02:28:58;;;;;;;5.15;3.53;;;;;;;22.35;65.78;98982.50;5011123;28;20052;-68
2022/07/22 02:31:42;;;;;;;5.93;3.28;;;;;;;22.42;66.33;98980.78;5024024;28;20054;-67
2022/07/22 02:34:27;;;;;;;3.38;2.80;;;;;;;22.35;67.47;98985.16;5008866;28;20113;-67
2022/07/22 02:37:12;;;;;;;3.95;3.05;;;;;;;22.20;69.23;98993.06;5010396;28;20038;-67
2022/07/22 02:39:58;;;;;;;6.20;3.17;;;;;;;22.05;69.31;98985.00;5032748;28;20091;-67
2022/07/22 02:42:43;;;;;;;8.95;3.33;;;;;;;21.81;69.58;98987.63;5019722;28;20061;-68
2022/07/22 02:45:28;;;;;;;5.63;3.00;;;;;;;21.72;70.03;98984.13;5027507;28;20052;-69
2022/07/22 02:48:13;;;;;;;5.85;3.38;;;;;;;21.72;70.69;98989.47;5027174;28;20053;-67
2022/07/22 02:50:58;;;;;;;7.22;3.55;;;;;;;21.54;70.68;98987.84;5013951;28;20042;-67
2022/07/22 02:53:46;;;;;;;4.95;3.03;;;;;;;21.63;71.00;98996.66;5001642;28;20046;-67
2022/07/22 02:56:31;;;;;;;4.63;3.25;;;;;;;21.63;69.91;98978.00;5013941;28;20030;-69
2022/07/22 02:59:16;;;;;;;4.30;3.00;;;;;;;21.52;70.02;98984.53;4999444;28;20045;-67
2022/07/22 03:02:01;;;;;;;6.03;2.97;;;;;;;21.57;70.53;98983.19;5011388;28;20054;-67
2022/07/22 03:04:47;;;;;;;5.57;3.30;;;;;;;21.56;69.65;98987.66;5030288;28;20465;-68
2022/07/22 03:07:33;;;;;;;4.82;2.90;;;;;;;21.56;69.79;98990.31;5011853;28;20074;-68
2022/07/22 03:10:18;;;;;;;5.03;3.28;;;;;;;21.65;69.82;98977.81;5011522;28;20041;-67
2022/07/22 03:13:03;;;;;;;5.43;3.58;;;;;;;21.77;69.19;98989.78;5012288;28;20125;-68
2022/07/22 03:15:48;;;;;;;6.35;3.20;;;;;;;21.65;68.26;98991.16;5013830;28;20045;-69
2022/07/22 03:18:34;;;;;;;4.20;2.70;;;;;;;21.81;67.68;98992.09;5012402;28;20512;-68
2022/07/22 03:21:20;;;;;;;4.97;3.00;;;;;;;21.74;68.02;98991.97;4998145;28;20056;-69
2022/07/22 03:24:05;;;;;;;6.18;3.58;;;;;;;21.82;67.37;98994.59;5010801;28;20068;-66
2022/07/22 03:26:51;;;;;;;3.67;2.60;;;;;;;21.89;67.17;98997.41;5012410;28;20045;-67
2022/07/22 03:29:36;;;;;;;5.30;3.28;;;;;;;21.91;67.41;98998.06;5013097;28;20049;-66
2022/07/22 03:32:20;;;;;;;5.78;3.20;;;;;;;22.01;68.55;98997.84;5012315;28;20398;-66
2022/07/22 03:35:06;;;;;;;4.53;2.72;;;;;;;22.05;66.90;99001.81;5026397;28;20344;-66
2022/07/22 03:37:57;;;;;;;3.88;2.75;;;;;;;22.11;67.01;98994.97;5026809;28;20042;-66
2022/07/22 03:40:44;;;;;;;6.00;3.40;;;;;;;22.25;67.08;99002.22;5012403;28;20042;-66
2022/07/22 03:43:29;;;;;;;5.68;3.20;;;;;;;22.26;68.95;99003.88;5012471;28;20065;-66
2022/07/22 03:46:14;;;;;;;5.53;3.08;;;;;;;22.15;69.21;99005.13;5001613;28;20046;-67
2022/07/22 03:48:59;;;;;;;5.47;3.58;;;;;;;22.06;67.10;99002.66;5011633;28;20042;-67
2022/07/22 03:51:44;;;;;;;4.75;3.45;;;;;;;21.99;68.20;99007.88;5005697;28;20045;-67
2022/07/22 03:54:29;;;;;;;5.88;3.75;;;;;;;21.96;67.72;99003.72;5012062;28;20041;-67
2022/07/22 03:57:14;;;;;;;5.90;3.17;;;;;;;22.03;67.92;99011.84;5012085;28;20394;-66
2022/07/22 04:00:00;;;;;;;4.90;3.47;;;;;;;22.14;66.73;99019.47;5026236;28;20034;-67
2022/07/22 04:02:45;;;;;;;4.60;3.55;;;;;;;22.16;66.13;99016.63;5014536;28;20033;-67
2022/07/22 04:05:38;;;;;;;5.07;3.40;;;;;;;22.17;66.36;99012.94;4998318;28;20480;-67
2022/07/22 04:08:24;;;;;;;5.50;3.80;;;;;;;22.36;64.89;99016.19;5020714;28;20050;-66
2022/07/22 04:11:09;;;;;;;6.00;3.80;;;;;;;22.33;66.19;99019.19;5012578;28;20065;-66
2022/07/22 04:13:53;;;;;;;6.70;3.15;;;;;;;22.33;66.14;99017.34;4996163;28;20061;-69
2022/07/22 04:16:38;;;;;;;5.72;3.28;;;;;;;22.40;65.42;99018.31;5026469;28;20390;-69
2022/07/22 04:19:28;;;;;;;6.18;3.47;;;;;;;22.43;66.53;99010.94;4985661;28;20041;-69
2022/07/22 04:22:15;;;;;;;5.13;3.38;;;;;;;22.45;66.31;99014.28;5026190;28;20038;-68
2022/07/22 04:25:00;;;;;;;5.18;2.90;;;;;;;22.67;67.72;99009.97;5025137;28;20042;-74
2022/07/22 04:27:46;;;;;;;5.35;3.33;;;;;;;22.83;66.68;99014.34;5011904;28;20104;-73
2022/07/22 04:30:31;;;;;;;6.43;3.63;;;;;;;22.97;69.26;99019.94;5004310;28;20038;-74
2022/07/22 04:33:16;;;;;;;4.85;3.30;;;;;;;23.01;67.54;99021.25;4997789;28;20124;-73
2022/07/22 04:36:01;;;;;;;5.72;3.28;;;;;;;23.07;67.10;99023.19;5025357;28;20034;-71
2022/07/22 04:38:46;;;;;;;4.88;3.17;;;;;;;22.85;66.50;99031.03;5011547;28;20040;-72
2022/07/22 04:41:30;;;;;;;4.78;3.40;;;;;;;22.53;69.11;99019.56;5005527;28;20045;-72
2022/07/22 04:44:16;;;;;;;6.25;3.78;;;;;;;22.72;68.64;99022.81;5025971;28;20034;-73
2022/07/22 04:47:01;;;;;;;7.40;4.00;;;;;;;22.69;69.61;99025.81;5011531;28;20049;-73
2022/07/22 04:49:47;;;;;;;6.10;3.33;;;;;;;22.75;68.93;99025.13;5003473;28;20065;-71
2022/07/22 04:52:33;;;;;;;5.20;3.35;;;;;;;22.71;67.67;99021.13;5025502;28;20092;-73
2022/07/22 04:55:17;;;;;;;5.53;4.07;;;;;;;22.79;68.73;99022.91;4993901;28;20042;-72
2022/07/22 04:58:03;;;;;;;6.00;4.07;;;;;;;22.54;69.40;99025.75;5010715;28;20054;-72
2022/07/22 05:00:49;;;;;;;7.05;3.60;;;;;;;22.88;68.56;99028.00;5024791;28;20045;-73
2022/07/22 05:03:38;;;;;;;6.20;3.65;;;;;;;22.68;68.19;99029.50;5011307;28;20046;-72
2022/07/22 05:06:24;;;;;;;5.38;3.80;;;;;;;22.63;70.04;99028.22;5010619;28;20038;-71
2022/07/22 05:09:10;;;;;;;5.43;3.60;;;;;;;22.84;67.48;99033.88;5010575;28;20038;-72
2022/07/22 05:11:55;;;;;;;5.30;3.47;;;;;;;22.74;68.54;99031.47;5026478;28;20089;-72
2022/07/22 05:14:41;;;;;;;5.38;3.25;;;;;;;23.08;68.98;99024.00;5002609;28;20075;-72
2022/07/22 05:17:26;;;;;;;7.70;3.65;;;;;;;23.04;67.26;99020.88;5024736;28;20084;-73
2022/07/22 05:20:23;;;;;;;6.45;4.03;;;;;;;22.86;66.65;99027.38;5011296;28;20478;-73
2022/07/22 05:23:08;;;;;;;7.25;4.05;;;;;;;23.19;65.25;99036.91;5011815;28;20069;-71
2022/07/22 05:25:55;;;;;;;6.50;3.78;;;;;;;23.07;65.88;99028.53;5015204;28;20029;-73
2022/07/22 05:28:39;;;;;;;5.35;3.67;;;;;;;22.95;66.90;99025.44;5017585;28;20049;-72
2022/07/22 05:31:25;;;;;;;7.55;4.22;;;;;;;23.08;65.11;99022.16;5024870;28;20359;-72
2022/07/22 05:34:10;;;;;;;6.85;4.22;;;;;;;22.99;65.45;99026.78;5024364;28;20061;-72
2022/07/22 05:37:02;;;;;;;7.05;3.67;;;;;;;23.38;65.52;99032.91;5010880;28;20095;-72
2022/07/22 05:39:47;;;;;;;5.20;3.78;;;;;;;23.38;64.44;99029.41;4998060;28;20076;-72
2022/07/22 05:42:32;;;;;;;6.22;4.22;;;;;;;23.59;63.32;99027.88;5011856;28;20044;-73
2022/07/22 05:45:17;;;;;;;7.18;3.83;;;;;;;23.82;62.32;99033.13;4983689;28;20046;-72
2022/07/22 05:48:02;;;;;;;6.13;3.67;;;;;;;23.33;65.21;99021.09;5012138;28;20036;-73
2022/07/22 05:50:50;;;;;;;6.32;3.90;;;;;;;23.41;64.20;99039.75;5025557;28;20042;-72
2022/07/22 05:53:35;;;;;;;6.57;4.63;;;;;;;23.41;63.31;99039.75;5024645;28;20063;-69
2022/07/22 05:56:20;;;;;;;5.57;3.60;;;;;;;23.72;64.57;99041.44;5012713;28;20049;-72
2022/07/22 05:59:06;;;;;;;6.63;4.40;;;;;;;23.86;61.68;99042.44;5011591;28;20465;-73
2022/07/22 06:01:52;;;;;;;6.28;4.18;;;;;;;24.11;61.66;99049.31;5022733;28;20030;-72
2022/07/22 06:04:57;;;;;;;6.60;4.22;;;;;;;23.96;61.98;99044.03;5012985;28;20084;-72
2022/07/22 06:07:43;;;;;;;6.95;4.18;;;;;;;24.43;59.72;99041.91;5023243;28;20044;-72
2022/07/22 06:10:32;;;;;;;6.13;3.78;;;;;;;25.13;59.73;99037.84;4997073;28;20034;-72
2022/07/22 06:13:17;;;;;;;5.95;3.70;;;;;;;25.12;58.28;99038.03;5008578;28;20049;-71
2022/07/22 06:16:05;;;;;;;5.13;3.85;;;;;;;24.87;58.68;99033.91;4998246;28;20397;-72
2022/07/22 06:18:50;;;;;;;5.38;3.80;;;;;;;25.19;58.35;99042.41;5025288;28;20077;-72
2022/07/22 06:21:36;;;;;;;5.47;3.83;;;;;;;25.18;58.79;99046.09;4996280;28;20084;-72
2022/07/22 06:24:22;;;;;;;5.22;3.75;;;;;;;24.89;59.15;99050.59;4996462;28;20045;-70
2022/07/22 06:27:07;;;;;;;6.75;4.00;;;;;;;24.34;59.98;99056.41;4990974;28;20091;-72
2022/07/22 06:29:52;;;;;;;6.70;4.18;;;;;;;25.01;58.18;99050.09;5009363;28;20034;-72
2022/07/22 06:32:37;;;;;;;7.97;4.57;;;;;;;25.17;58.65;99057.03;4996344;28;20541;-72
2022/07/22 06:35:24;;;;;;;4.40;3.70;;;;;;;25.48;57.46;99061.16;5023286;28;20050;-71
2022/07/22 06:38:09;;;;;;;8.55;3.80;;;;;;;25.13;58.28;99063.81;5017785;28;20122;-72
2022/07/22 06:41:18;;;;;;;8.63;4.10;;;;;;;25.06;57.61;99051.19;4999380;28;20052;-74
2022/07/22 06:44:29;;;;;;;10.13;4.15;;;;;;;25.75;55.93;99053.34;5011502;28;20087;-73
2022/07/22 06:47:31;;;;;;;7.72;3.70;;;;;;;25.44;56.79;99052.72;5009300;28;20038;-73
2022/07/22 06:50:17;;;;;;;6.40;3.90;;;;;;;25.37;56.82;99059.88;5009973;28;20056;-73
2022/07/22 06:53:02;;;;;;;5.55;4.00;;;;;;;25.62;56.40;99047.84;5010457;28;20037;-73
2022/07/22 06:55:48;;;;;;;6.38;4.03;;;;;;;25.78;55.63;99049.41;5013763;28;20483;-73
2022/07/22 06:58:34;;;;;;;6.32;4.15;;;;;;;26.25;55.05;99054.97;5023108;28;20042;-72
2022/07/22 07:01:18;;;;;;;5.82;3.78;;;;;;;26.52;53.12;99051.59;5010457;28;20042;-74
2022/07/22 07:04:15;;;;;;;7.97;4.05;;;;;;;25.96;54.76;99048.88;5008477;28;20044;-73
2022/07/22 07:07:00;;;;;;;4.65;3.75;;;;;;;26.28;53.85;99054.59;5009431;28;20534;-74
2022/07/22 07:09:50;;;;;;;6.32;3.92;;;;;;;26.55;54.43;99046.63;5010136;28;20049;-72
2022/07/22 07:12:46;;;;;;;5.45;3.90;;;;;;;26.82;52.29;99045.84;4998830;28;20048;-73
2022/07/22 07:15:39;;;;;;;8.02;4.35;;;;;;;27.67;52.39;99043.50;5008771;28;20040;-71
2022/07/22 07:18:26;;;;;;;6.90;4.20;;;;;;;28.27;48.56;99039.78;4996007;28;20104;-74
2022/07/22 07:21:11;;;;;;;5.78;4.28;;;;;;;28.42;48.74;99041.41;5009514;28;20038;-70
2022/07/22 07:23:56;;;;;;;8.32;4.13;;;;;;;27.97;49.88;99045.75;5023578;28;20083;-73
2022/07/22 07:26:42;;;;;;;6.07;3.92;;;;;;;28.50;48.59;99041.13;5012790;28;20121;-74
2022/07/22 07:29:27;;;;;;;6.35;3.90;;;;;;;28.63;47.22;99042.09;5013343;28;20583;-72
2022/07/22 07:32:12;;;;;;;6.65;3.92;;;;;;;28.89;47.71;99034.84;5011952;28;20101;-72
2022/07/22 07:34:57;;;;;;;6.10;3.80;;;;;;;29.73;47.05;99035.56;5027012;28;20061;-73
2022/07/22 07:37:42;;;;;;;5.68;3.92;;;;;;;30.32;43.50;99034.25;5013473;28;20100;-74
2022/07/22 07:40:27;;;;;;;6.10;3.78;;;;;;;29.89;44.29;99031.44;5012935;28;20049;-73
2022/07/22 07:43:12;;;;;;;5.40;4.00;;;;;;;30.40;44.16;99033.09;5012913;28;20557;-73
2022/07/22 07:45:57;;;;;;;5.22;3.42;;;;;;;30.12;43.47;99035.31;5025912;28;20048;-71
2022/07/22 07:48:42;;;;;;;6.93;3.90;;;;;;;30.58;43.62;99030.34;5012271;28;20133;-72
2022/07/22 07:51:27;;;;;;;5.75;3.78;;;;;;;30.84;42.88;99030.16;5012132;28;20030;-72
2022/07/22 07:54:12;;;;;;;5.88;4.00;;;;;;;29.55;44.34;99022.88;5011895;28;20037;-72
2022/07/22 07:56:59;;;;;;;5.28;3.80;;;;;;;30.05;43.50;99021.88;5001614;28;20113;-71
2022/07/22 07:59:44;;;;;;;4.50;3.50;;;;;;;30.52;42.56;99030.44;5012866;28;20041;-74
2022/07/22 08:02:29;;;;;;;5.05;3.60;;;;;;;30.64;42.62;99019.63;5026035;28;20505;-70
2022/07/22 08:05:15;;;;;;;5.93;3.88;;;;;;;30.20;42.12;99026.09;5012238;28;20113;-71
2022/07/22 08:08:01;;;;;;;6.63;3.70;;;;;;;30.14;45.70;99025.09;4998822;28;20479;-72
2022/07/22 08:10:46;;;;;;;6.15;3.92;;;;;;;30.43;42.11;99019.94;4999488;28;20069;-70
2022/07/22 08:13:54;;;;;;;4.00;3.30;;;;;;;30.88;42.61;99017.81;4992707;28;20063;-72
2022/07/22 08:16:59;;;;;;;4.95;3.40;;;;;;;31.05;43.95;99025.25;5008516;28;20061;-72
2022/07/22 08:19:45;;;;;;;6.50;3.33;;;;;;;31.27;40.61;99021.97;5001031;28;20037;-71
2022/07/22 08:22:30;;;;;;;6.63;3.35;;;;;;;31.60;40.24;99023.22;5014055;28;20050;-71
2022/07/22 08:25:15;;;;;;;4.35;3.13;;;;;;;31.78;39.36;99022.25;5028328;28;20208;-72
2022/07/22 08:28:00;;;;;;;4.63;3.38;;;;;;;30.29;41.21;99015.78;5014320;28;20029;-70
2022/07/22 08:30:45;;;;;;;5.88;3.35;;;;;;;30.10;42.64;99027.44;5005817;28;20109;-70
2022/07/22 08:33:30;;;;;;;4.80;2.97;;;;;;;31.28;40.56;99027.13;5025742;28;20037;-70
2022/07/22 08:36:15;;;;;;;5.75;3.25;;;;;;;31.04;40.31;99024.44;5010507;28;20052;-70
2022/07/22 08:39:00;;;;;;;6.30;3.42;;;;;;;31.68;40.21;99022.06;5025923;28;20048;-71
2022/07/22 08:41:45;;;;;;;6.32;3.40;;;;;;;31.75;40.09;99020.03;5024984;28;20083;-71
2022/07/22 08:44:32;;;;;;;7.40;3.60;;;;;;;33.02;37.08;99030.19;5026321;28;20049;-71
2022/07/22 08:47:22;;;;;;;4.40;3.08;;;;;;;32.74;39.24;99026.47;5011330;28;20390;-71
2022/07/22 08:50:23;;;;;;;5.32;3.40;;;;;;;33.21;36.54;99017.19;5025336;28;20084;-71
2022/07/22 08:53:26;;;;;;;7.72;3.28;;;;;;;32.77;37.73;99026.81;5025332;28;20092;-72
2022/07/22 08:56:14;;;;;;;7.32;3.83;;;;;;;33.41;38.52;99019.34;5011718;28;20367;-71
2022/07/22 08:58:59;;;;;;;3.97;2.88;;;;;;;34.07;35.16;99016.91;5010786;28;20038;-71
2022/07/22 09:02:07;;;;;;;4.38;2.85;;;;;;;34.18;34.20;99022.47;5017465;28;20053;-68
2022/07/22 09:05:06;;;;;;;5.03;2.95;;;;;;;33.78;36.12;99017.13;5018427;28;20076;-71
2022/07/22 09:07:58;;;;;;;7.85;3.25;;;;;;;34.87;32.89;99022.81;5024397;28;20045;-71
2022/07/22 09:10:48;;;;;;;3.90;2.70;;;;;;;34.33;34.92;99019.06;5011854;28;20037;-69
2022/07/22 09:14:10;;;;;;;4.57;3.00;;;;;;;35.30;34.41;99016.59;4977302;28;20082;-71
2022/07/22 09:17:31;;;;;;;4.95;3.10;;;;;;;33.94;33.94;99012.69;4984645;28;20403;-69
2022/07/22 09:20:37;;;;;;;3.78;3.03;;;;;;;34.05;39.03;99010.88;5009987;28;20038;-70
2022/07/22 09:23:45;;;;;;;4.10;3.03;;;;;;;34.52;34.35;99011.38;5011246;28;20069;-71
2022/07/22 09:26:38;;;;;;;8.98;3.70;;;;;;;34.32;37.41;99010.13;5011550;28;20042;-70
2022/07/22 09:29:50;;;;;;;4.38;2.75;;;;;;;34.67;37.16;99005.22;5018244;28;20081;-70
2022/07/22 09:32:41;;;;;;;4.30;3.03;;;;;;;35.46;32.39;99003.88;5022328;28;20049;-71
2022/07/22 09:35:43;;;;;;;6.72;3.05;;;;;;;34.25;34.83;99002.16;5026282;28;20120;-71
2022/07/22 09:38:34;;;;;;;5.28;3.00;;;;;;;35.43;32.12;99007.13;5022094;28;20112;-70
2022/07/22 09:41:20;;;;;;;5.53;3.15;;;;;;;36.28;32.92;99009.88;5024255;28;20398;-70
2022/07/22 09:44:24;;;;;;;4.22;3.10;;;;;;;36.63;33.84;99002.81;5010443;28;20149;-70
2022/07/22 09:47:27;;;;;;;4.00;2.78;;;;;;;36.34;33.54;99003.34;5002784;28;20049;-70
2022/07/22 09:50:32;;;;;;;3.40;2.85;;;;;;;36.97;34.13;98996.78;5010335;28;20041;-70
2022/07/22 09:53:40;;;;;;;4.32;2.97;;;;;;;37.42;32.18;98996.16;5010388;28;20060;-70
2022/07/22 09:56:30;;;;;;;3.92;2.95;;;;;;;37.33;30.42;98995.91;5022629;28;20045;-70
2022/07/22 09:59:15;;;;;;;4.25;2.88;;;;;;;37.08;29.70;98996.78;5010407;28;20398;-70
2022/07/22 10:02:06;;;;;;;4.93;3.30;;;;;;;37.41;29.79;98980.84;4998936;28;20116;-69
2022/07/22 10:04:52;;;;;;;4.82;3.20;;;;;;;36.94;31.06;98989.16;5010586;28;20037;-70
2022/07/22 10:07:40;;;;;;;4.65;3.00;;;;;;;36.90;29.56;98988.09;5010136;28;20478;-68
2022/07/22 10:10:28;;;;;;;5.70;3.08;;;;;;;36.89;30.70;98974.72;5023576;28;20033;-69
2022/07/22 10:13:12;;;;;;;41.25;5.13;;;;;;;38.37;27.28;98980.06;5010514;28;20429;-69
2022/07/22 10:15:59;;;;;;;4.63;2.78;;;;;;;38.21;28.69;98977.44;5011546;28;20113;-69
2022/07/22 10:18:46;;;;;;;3.90;2.60;;;;;;;38.26;30.77;98971.94;5009695;28;20092;-71
2022/07/22 10:21:33;;;;;;;3.60;2.40;;;;;;;39.00;25.82;98972.94;5024506;28;20074;-68
2022/07/22 10:24:18;;;;;;;5.97;2.88;;;;;;;38.92;27.05;98968.09;5009741;28;20685;-69
2022/07/22 10:27:12;;;;;;;6.45;3.15;;;;;;;39.01;28.21;98962.81;5009332;28;20086;-67
2022/07/22 10:29:59;;;;;;;3.95;2.85;;;;;;;38.75;29.05;98960.34;5010303;28;20038;-71
2022/07/22 10:32:45;;;;;;;3.83;2.45;;;;;;;38.96;25.87;98957.38;5009442;28;20072;-70
2022/07/22 10:35:30;;;;;;;5.30;2.83;;;;;;;39.06;27.23;98954.53;5010393;28;20042;-70
2022/07/22 10:38:21;;;;;;;4.05;2.70;;;;;;;39.35;27.75;98948.19;5007804;28;20080;-69
2022/07/22 10:41:10;;;;;;;4.05;2.97;;;;;;;39.18;31.63;98949.50;5012973;28;20037;-70
2022/07/22 10:43:55;;;;;;;4.40;3.08;;;;;;;39.34;25.44;98943.81;5010438;28;20044;-70
2022/07/22 10:46:50;;;;;;;4.97;2.97;;;;;;;37.98;27.02;98937.97;5011201;28;20116;-69
2022/07/22 10:49:36;;;;;;;3.53;2.80;;;;;;;39.15;28.88;98933.66;5010498;28;20121;-72
2022/07/22 10:52:34;;;;;;;6.45;2.60;;;;;;;39.80;33.08;98933.34;5024220;28;20044;-71
2022/07/22 10:55:20;;;;;;;4.63;2.60;;;;;;;37.94;27.14;98924.06;5010972;28;20042;-69
2022/07/22 10:58:32;;;;;;;4.57;2.63;;;;;;;36.78;28.27;98933.81;5010629;28;20076;-70
2022/07/22 11:01:21;;;;;;;3.75;2.40;;;;;;;38.74;27.87;98934.91;5016078;28;20148;-70
2022/07/22 11:04:11;;;;;;;4.28;2.60;;;;;;;39.07;32.19;98931.53;5015701;28;20045;-68
2022/07/22 11:06:56;;;;;;;3.95;2.53;;;;;;;39.83;26.07;98930.03;5033655;28;20513;-70
2022/07/22 11:09:41;;;;;;;5.18;2.33;;;;;;;39.49;24.04;98920.91;5011008;28;20109;-71
2022/07/22 11:12:26;;;;;;;2.67;2.22;;;;;;;40.56;23.97;98926.13;5004152;28;20045;-70
2022/07/22 11:15:11;;;;;;;3.65;2.67;;;;;;;40.50;23.62;98921.81;5021421;28;20499;-69
2022/07/22 11:17:57;;;;;;;4.53;2.55;;;;;;;40.59;25.49;98921.97;5013261;28;20040;-71
2022/07/22 11:20:42;;;;;;;2.90;2.22;;;;;;;40.60;28.95;98929.09;5011146;28;20037;-71
2022/07/22 11:23:27;;;;;;;4.90;2.78;;;;;;;39.84;23.94;98917.16;5012918;28;20115;-71
2022/07/22 11:26:14;;;;;;;4.13;2.33;;;;;;;40.21;25.42;98911.91;5001686;28;20416;-71
2022/07/22 11:29:00;;;;;;;7.53;2.40;;;;;;;39.64;24.11;98908.94;5012711;28;20041;-70
2022/07/22 11:31:45;;;;;;;4.13;3.33;;;;;;;39.69;24.28;98901.75;5014247;28;20056;-70
2022/07/22 11:34:30;;;;;;;4.13;2.30;;;;;;;40.65;26.15;98909.78;5012661;28;20083;-70
2022/07/22 11:37:18;;;;;;;3.20;2.42;;;;;;;41.30;23.24;98900.81;5013700;28;20068;-70
2022/07/22 11:40:07;;;;;;;2.75;2.30;;;;;;;41.34;26.64;98912.81;5003607;28;20472;-71
2022/07/22 11:43:02;;;;;;;3.72;2.30;;;;;;;41.12;22.57;98900.66;5013006;28;20038;-71
2022/07/22 11:45:57;;;;;;;4.13;2.38;;;;;;;41.43;22.79;98899.19;5013781;28;20038;-70
2022/07/22 11:48:43;;;;;;;3.33;2.50;;;;;;;41.10;27.71;98895.47;5004532;28;20038;-70
2022/07/22 11:51:33;;;;;;;2.40;2.05;;;;;;;41.71;29.56;98890.84;5013136;28;20090;-71
2022/07/22 11:54:18;;;;;;;4.30;2.20;;;;;;;40.44;29.12;98888.19;5026887;28;20538;-70
2022/07/22 11:57:03;;;;;;;2.65;2.00;;;;;;;40.09;31.00;98893.19;5013151;28;20046;-73
2022/07/22 11:59:47;;;;;;;2.97;2.15;;;;;;;40.00;30.83;98885.63;5012392;28;20390;-70
2022/07/22 12:02:32;;;;;;;3.88;2.28;;;;;;;40.26;29.29;98887.16;5013297;28;20045;-70
2022/07/22 12:05:17;;;;;;;2.70;2.40;;;;;;;39.94;30.83;98877.81;5013103;28;20049;-71
2022/07/22 12:08:03;;;;;;;4.43;2.90;;;;;;;39.91;32.98;98880.00;5012853;28;20422;-68
2022/07/22 12:10:47;;;;;;;2.70;1.77;;;;;;;40.32;29.55;98865.91;5000258;28;20069;-69
2022/07/22 12:13:32;;;;;;;2.92;2.03;;;;;;;40.18;32.40;98869.47;5013233;28;20482;-70
2022/07/22 12:16:26;;;;;;;3.42;2.30;;;;;;;39.32;27.82;98874.84;5013707;28;20034;-71
2022/07/22 12:19:12;;;;;;;3.20;1.90;;;;;;;39.55;29.76;98867.66;5026070;28;20084;-70
2022/07/22 12:21:57;;;;;;;2.20;2.00;;;;;;;39.37;33.08;98860.28;5013073;28;20042;-69
2022/07/22 12:24:44;;;;;;;3.90;2.47;;;;;;;38.97;30.45;98864.06;5011256;28;20030;-69
2022/07/22 12:27:30;;;;;;;3.13;2.20;;;;;;;39.67;28.76;98858.22;5011902;28;20053;-70
2022/07/22 12:30:18;;;;;;;2.80;2.30;;;;;;;39.02;25.24;98858.50;5013461;28;20045;-68
2022/07/22 12:33:02;;;;;;;4.60;1.95;;;;;;;39.11;28.84;98855.94;5012862;28;20077;-69
2022/07/22 12:36:07;;;;;;;5.78;2.17;;;;;;;39.03;28.10;98854.66;5025544;28;20045;-69
2022/07/22 12:38:52;;;;;;;3.70;2.50;;;;;;;38.17;27.63;98856.09;5025474;28;20038;-70
2022/07/22 12:41:45;;;;;;;3.67;2.00;;;;;;;38.62;34.50;98849.66;5001153;28;20471;-70
2022/07/22 12:44:30;;;;;;;3.08;2.13;;;;;;;38.83;30.59;98843.97;4984769;28;20049;-68
2022/07/22 12:47:15;;;;;;;4.07;2.00;;;;;;;39.40;28.11;98846.78;5011392;28;20052;-70
2022/07/22 12:50:34;;;;;;;3.35;2.20;;;;;;;39.65;26.74;98847.56;4999556;28;20467;-70
2022/07/22 12:53:19;;;;;;;3.78;2.10;;;;;;;39.80;30.84;98840.19;4999074;28;20426;-70
2022/07/22 12:56:07;;;;;;;4.57;2.28;;;;;;;39.23;27.74;98833.63;5011890;28;20048;-70
2022/07/22 12:58:51;;;;;;;2.42;1.92;;;;;;;38.74;23.44;98844.63;5011538;28;20042;-66
2022/07/22 13:01:36;;;;;;;2.85;2.20;;;;;;;39.16;25.38;98836.72;5011594;28;20048;-70
2022/07/22 13:04:22;;;;;;;3.08;2.17;;;;;;;40.25;27.25;98842.44;5012755;28;20467;-72
2022/07/22 13:07:06;;;;;;;3.60;2.45;;;;;;;40.35;27.69;98843.41;5011830;28;20061;-70
2022/07/22 13:09:51;;;;;;;4.10;2.42;;;;;;;39.13;28.99;98837.28;5011866;28;20034;-69